ADDS METAR Data INFO
IDs: Format: Raw Decoded Include TAF

Data at: 0028 UTC 17 Dec 2017

KOZS 170015Z AUTO 17006KT 10SM CLR 11/M05 A3002 RMK AO2
KOZS 162355Z AUTO 18006KT 10SM CLR 11/M05 A3002 RMK AO2
KOZS 162335Z AUTO 18005KT 10SM CLR 11/M05 A3000 RMK AO2
KOZS 162315Z AUTO 18004KT 10SM CLR 11/M05 A3000 RMK AO2
KOZS 162255Z AUTO 19004KT 10SM CLR 12/M05 A2999 RMK AO2
KOZS 162235Z AUTO 18006KT 10SM CLR 12/M05 A2998 RMK AO2
KOZS 162215Z AUTO 20007KT 10SM CLR 13/M05 A2997 RMK AO2
KOZS 162155Z AUTO 20009KT 10SM CLR 13/M05 A2997 RMK AO2
KOZS 162135Z AUTO 20008G19KT 10SM CLR 13/M06 A2997 RMK AO2
KOZS 162115Z AUTO 22012G17KT 10SM CLR 15/M05 A2996 RMK AO2
KOZS 162055Z AUTO 20010G19KT 10SM CLR 15/M05 A2996 RMK AO2
KOZS 162035Z AUTO 19011G19KT 10SM CLR 16/M05 A2995 RMK AO2
KOZS 162015Z AUTO 21015G20KT 10SM CLR 15/M05 A2995 RMK AO2
KOZS 161955Z AUTO 21015G20KT 10SM CLR 15/M05 A2995 RMK AO2
KOZS 161935Z AUTO 22015G21KT 10SM CLR 15/M05 A2995 RMK AO2
KOZS 161915Z AUTO 20013G22KT 10SM CLR 15/M04 A2995 RMK AO2
KOZS 161855Z AUTO 21013G23KT 10SM CLR 15/M04 A2996 RMK AO2
KOZS 161835Z AUTO 22018G24KT 10SM CLR 15/M04 A2996 RMK AO2
KOZS 161815Z AUTO 20011G19KT 10SM CLR 15/M03 A2997 RMK AO2
KOZS 161755Z AUTO 21011G18KT 10SM CLR 14/M03 A2998 RMK AO2
KOZS 161735Z AUTO 21013G21KT 10SM CLR 13/M03 A2999 RMK AO2
KOZS 161715Z AUTO 21015G22KT 10SM CLR 13/M03 A2999 RMK AO2
KOZS 161655Z AUTO 20014G20KT 10SM CLR 12/M03 A3000 RMK AO2
KOZS 161635Z AUTO 21011G20KT 10SM CLR 11/M04 A3001 RMK AO2
KOZS 161615Z AUTO 21009G19KT 10SM CLR 10/M04 A3001 RMK AO2
KOZS 161555Z AUTO 21012G22KT 10SM CLR 09/M04 A3001 RMK AO2
KOZS 161535Z AUTO 21013G17KT 10SM CLR 08/M04 A3001 RMK AO2
KOZS 161515Z AUTO 21013G19KT 10SM CLR 07/M05 A3000 RMK AO2
KOZS 161455Z AUTO 20012G17KT 170V230 10SM CLR 07/M05 A3000 RMK AO2
KOZS 161435Z AUTO 21010G14KT 10SM CLR 06/M05 A3000 RMK AO2
KOZS 161415Z AUTO 21010G19KT 10SM CLR 05/M05 A3000 RMK AO2
KOZS 161355Z AUTO 20010G17KT 10SM CLR 05/M05 A2999 RMK AO2
KOZS 161335Z AUTO 20014G19KT 10SM CLR 05/M05 A2999 RMK AO2
KOZS 161315Z AUTO 20013G19KT 10SM CLR 05/M05 A2999 RMK AO2
KOZS 161255Z AUTO 20015G21KT 10SM CLR 05/M05 A2998 RMK AO2
KOZS 161235Z AUTO 19011G16KT 10SM CLR 03/M05 A2997 RMK AO2
KOZS 161215Z AUTO 19009G14KT 10SM CLR 03/M05 A2997 RMK AO2
KOZS 161155Z AUTO 20009G16KT 10SM CLR 04/M05 A2997 RMK AO2
KOZS 161135Z AUTO 20010G16KT 10SM CLR 04/M05 A2997 RMK AO2
KOZS 161115Z AUTO 21009G15KT 10SM CLR 04/M05 A2998 RMK AO2
KOZS 161055Z AUTO 21011G17KT 10SM CLR 04/M05 A2999 RMK AO2
KOZS 161035Z AUTO 21009G18KT 10SM CLR 04/M05 A2999 RMK AO2
KOZS 161015Z AUTO 21010G15KT 10SM CLR 04/M05 A2999 RMK AO2
KOZS 160955Z AUTO 21013G17KT 10SM CLR 04/M05 A2999 RMK AO2
KOZS 160935Z AUTO 21008G16KT 10SM CLR 04/M05 A2999 RMK AO2
KOZS 160915Z AUTO 20009G14KT 10SM CLR 04/M05 A3000 RMK AO2
KOZS 160855Z AUTO 21009G15KT 10SM CLR 04/M05 A3000 RMK AO2
KOZS 160835Z AUTO 20011G16KT 10SM CLR 04/M04 A3000 RMK AO2
KOZS 160815Z AUTO 20008KT 10SM CLR 03/M04 A3001 RMK AO2
KOZS 160755Z AUTO 20006KT 10SM CLR 03/M04 A3001 RMK AO2
KOZS 160735Z AUTO 20007KT 10SM CLR 03/M04 A3001 RMK AO2
KOZS 160715Z AUTO 19005KT 10SM CLR 02/M04 A3001 RMK AO2
KOZS 160655Z AUTO 19006KT 10SM CLR 02/M04 A3002 RMK AO2
KOZS 160635Z AUTO 19007KT 10SM CLR 02/M04 A3002 RMK AO2
KOZS 160615Z AUTO 20008KT 10SM CLR 02/M04 A3002 RMK AO2
KOZS 160555Z AUTO 19007KT 10SM CLR 02/M03 A3002 RMK AO2
KOZS 160535Z AUTO 20009KT 10SM CLR 02/M03 A3004 RMK AO2
KOZS 160515Z AUTO 21006KT 10SM CLR 02/M04 A3005 RMK AO2
KOZS 160455Z AUTO 21006KT 10SM CLR 02/M04 A3005 RMK AO2
KOZS 160435Z AUTO 21009KT 10SM CLR 03/M04 A3005 RMK AO2
KOZS 160415Z AUTO 21008KT 10SM CLR 02/M04 A3004 RMK AO2
KOZS 160355Z AUTO 20008G14KT 10SM CLR 03/M04 A3004 RMK AO2
KOZS 160335Z AUTO 21009KT 10SM CLR 03/M04 A3004 RMK AO2
KOZS 160315Z AUTO 20009KT 10SM CLR 03/M04 A3004 RMK AO2
KOZS 160255Z AUTO 20009KT 10SM CLR 02/M04 A3005 RMK AO2
KOZS 160235Z AUTO 19007KT 10SM CLR 02/M04 A3005 RMK AO2
KOZS 160215Z AUTO 19006KT 10SM CLR 02/M03 A3006 RMK AO2
KOZS 160155Z AUTO 19004KT 10SM CLR 02/M03 A3007 RMK AO2
KOZS 160135Z AUTO 20004KT 10SM CLR 02/M03 A3006 RMK AO2
KOZS 160115Z AUTO 19005KT 10SM CLR 02/M03 A3005 RMK AO2
KOZS 160055Z AUTO 19005KT 10SM CLR 02/M03 A3006 RMK AO2
KOZS 160035Z AUTO 19005KT 10SM CLR 02/M03 A3006 RMK AO2
KOZS 160015Z AUTO 19005KT 10SM CLR 02/M03 A3006 RMK AO2
KOZS 152355Z AUTO 19005KT 10SM CLR 02/M03 A3006 RMK AO2
KOZS 152335Z AUTO 20005KT 10SM CLR 03/M03 A3006 RMK AO2
KOZS 152315Z AUTO 22005KT 10SM CLR 03/M03 A3007 RMK AO2
KOZS 152255Z AUTO 23004KT 10SM CLR 04/M03 A3008 RMK AO2
KOZS 152235Z AUTO 24007KT 10SM CLR 05/M03 A3008 RMK AO2
KOZS 152215Z AUTO 22009KT 10SM SCT038 05/M03 A3008 RMK AO2
KOZS 152155Z AUTO 22007G16KT 10SM BKN038 06/M03 A3008 RMK AO2
KOZS 152135Z AUTO 23008KT 10SM SCT038 06/M03 A3008 RMK AO2
KOZS 152115Z AUTO 24010G15KT 10SM OVC038 06/M03 A3009 RMK AO2
KOZS 152055Z AUTO 25009KT 10SM OVC038 05/M03 A3009 RMK AO2
KOZS 152035Z AUTO 25007KT 10SM OVC038 05/M03 A3009 RMK AO2
KOZS 152015Z AUTO 23012KT 10SM OVC038 05/M03 A3008 RMK AO2
KOZS 151955Z AUTO 26006KT 10SM OVC036 05/M03 A3009 RMK AO2
KOZS 151935Z AUTO 28007G17KT 10SM OVC036 05/M03 A3010 RMK AO2
KOZS 151915Z AUTO 25011G16KT 10SM OVC038 05/M03 A3010 RMK AO2
KOZS 151855Z AUTO 24012G17KT 10SM OVC036 05/M03 A3010 RMK AO2
KOZS 151835Z AUTO 27005KT 10SM OVC036 05/M03 A3012 RMK AO2
KOZS 151815Z AUTO 30011KT 10SM OVC036 05/M03 A3013 RMK AO2
KOZS 151755Z AUTO 27009G15KT 10SM OVC034 05/M03 A3014 RMK AO2
KOZS 151735Z AUTO 25009KT 10SM BKN032 BKN039 05/M03 A3014 RMK AO2
KOZS 151715Z AUTO 30009G16KT 10SM SCT030 05/M03 A3015 RMK AO2
KOZS 151655Z AUTO 29008KT 10SM CLR 04/M03 A3016 RMK AO2
KOZS 151635Z AUTO 29007KT 10SM SCT033 04/M02 A3016 RMK AO2
KOZS 151615Z AUTO 27008KT 10SM SCT033 03/M03 A3016 RMK AO2
KOZS 151555Z AUTO 29007KT 10SM CLR 03/M02 A3016 RMK AO2
KOZS 151535Z AUTO 29009KT 10SM CLR 03/M02 A3016 RMK AO2
KOZS 151515Z AUTO 27008KT 10SM CLR 02/M02 A3015 RMK AO2
KOZS 151455Z AUTO 27006KT 10SM CLR 01/M02 A3014 RMK AO2
KOZS 151435Z AUTO 25005KT 10SM CLR 01/M03 A3013 RMK AO2
KOZS 151415Z AUTO 25005KT 10SM CLR 00/M03 A3013 RMK AO2
KOZS 151355Z AUTO 25005KT 10SM SCT050 00/M03 A3013 RMK AO2
KOZS 151335Z AUTO 24006KT 10SM BKN050 00/M03 A3013 RMK AO2
KOZS 151315Z AUTO 23005KT 10SM OVC050 00/M03 A3013 RMK AO2
KOZS 151255Z AUTO 24004KT 10SM OVC050 00/M03 A3014 RMK AO2
KOZS 151235Z AUTO 24004KT 10SM OVC055 00/M03 A3013 RMK AO2